Time;durP1;ratioP1;P1;durP2;ratioP2;P2;SDS_P1;SDS_P2;PMS_P1;PMS_P2;Temp;Humidity;BMP_temperature;BMP_pressure;BME280_temperature;BME280_humidity;BME280_pressure;Samples;Min_cycle;Max_cycle;Signal;HPM_P1;HPM_P2
2021/11/02 00:45:40;;;;;;;1.85;1.38;;;;;;;5.60;81.16;98558.69;6056588;23;20037;-75
2021/11/02 00:51:34;;;;;;;6.03;1.75;;;;;;;5.43;81.64;98540.03;6051113;23;20015;-74
2021/11/02 00:54:52;;;;;;;;;;;;;;;;;;;;;
2021/11/02 00:58:20;;;;;;;;;;;;;;;;;;;;;
2021/11/02 01:04:31;;;;;;;1.30;1.20;;;;;;;5.56;81.40;98563.03;6092892;23;20053;-74
2021/11/02 01:06:57;;;;;;;2.15;0.95;;;;;;;5.52;80.78;98556.53;6070894;23;20022;-72
2021/11/02 01:09:25;;;;;;;1.77;1.33;;;;;;;5.54;81.15;98560.59;6271229;22;20022;-72
2021/11/02 01:11:53;;;;;;;2.03;1.05;;;;;;;5.45;80.32;98545.19;6361816;22;20059;-71
2021/11/02 01:14:18;;;;;;;1.73;0.80;;;;;;;5.54;80.62;98559.81;6363099;22;20072;-70
2021/11/02 01:16:44;;;;;;;0.98;0.98;;;;;;;5.50;80.50;98566.88;6364378;22;20359;-73
2021/11/02 01:19:09;;;;;;;0.90;0.90;;;;;;;5.47;80.24;98570.13;6363975;22;20432;-73
2021/11/02 01:21:35;;;;;;;0.65;0.65;;;;;;;5.41;80.15;98567.44;6307327;22;20443;-72
2021/11/02 01:24:01;;;;;;;0.77;0.77;;;;;;;5.40;80.04;98570.41;6364635;22;20002;-73
2021/11/02 01:26:26;;;;;;;1.25;1.15;;;;;;;5.36;80.12;98572.88;6363920;22;20013;-73
2021/11/02 01:28:52;;;;;;;1.13;1.13;;;;;;;5.31;79.49;98562.06;6361606;22;20294;-72
2021/11/02 01:31:20;;;;;;;1.48;1.38;;;;;;;5.26;80.80;98564.78;6305347;22;20038;-72
2021/11/02 01:33:45;;;;;;;1.17;1.08;;;;;;;5.29;79.87;98572.38;6283579;22;20011;-74
2021/11/02 01:36:11;;;;;;;1.23;1.00;;;;;;;5.28;80.10;98568.03;6365423;22;20555;-72
2021/11/02 01:38:37;;;;;;;1.17;0.75;;;;;;;5.24;80.09;98573.19;6310128;22;20447;-72
2021/11/02 01:41:06;;;;;;;2.10;1.13;;;;;;;5.25;80.84;98574.81;6336319;22;20002;-72
2021/11/02 01:43:32;;;;;;;1.65;1.55;;;;;;;5.16;80.30;98554.00;6362747;22;20002;-73
2021/11/02 01:46:00;;;;;;;3.08;1.67;;;;;;;5.18;80.96;98559.94;6363276;22;20009;-72
2021/11/02 01:48:25;;;;;;;1.52;1.42;;;;;;;5.23;81.15;98566.16;6361404;22;20002;-72
2021/11/02 01:50:56;;;;;;;3.05;1.17;;;;;;;5.23;80.68;98566.16;6359976;22;20406;-72
2021/11/02 01:53:21;;;;;;;2.45;1.73;;;;;;;5.18;80.99;98558.06;6362338;22;20100;-73
2021/11/02 01:55:47;;;;;;;2.88;1.90;;;;;;;5.11;80.78;98557.53;6336438;22;20030;-72
2021/11/02 01:58:23;;;;;;;1.42;1.30;;;;;;;5.13;81.67;98554.53;6358394;22;20002;-73
2021/11/02 02:00:56;;;;;;;3.05;1.38;;;;;;;5.14;82.02;98564.28;6364822;22;20294;-72
2021/11/02 02:03:40;;;;;;;5.68;1.63;;;;;;;5.20;82.88;98571.31;6364816;22;20310;-72
2021/11/02 02:06:23;;;;;;;3.63;1.33;;;;;;;5.19;82.31;98559.66;6367255;22;20364;-72
2021/11/02 02:09:01;;;;;;;1.63;1.52;;;;;;;5.22;81.96;98569.94;6364586;22;20018;-71
2021/11/02 02:11:46;;;;;;;1.70;1.60;;;;;;;5.24;82.38;98569.66;6366059;22;20078;-72
2021/11/02 02:14:20;;;;;;;1.30;1.20;;;;;;;5.20;81.55;98561.28;6367671;22;20003;-72
2021/11/02 02:16:53;;;;;;;1.55;1.17;;;;;;;5.18;81.48;98568.06;6364518;22;20002;-72
2021/11/02 02:19:45;;;;;;;1.52;1.38;;;;;;;5.19;81.98;98570.50;6334888;22;20031;-71
2021/11/02 02:22:23;;;;;;;1.00;0.90;;;;;;;5.18;81.90;98570.78;6336092;22;20006;-71
2021/11/02 02:25:30;;;;;;;0.95;0.95;;;;;;;5.17;81.23;98577.28;6336162;22;20059;-71
2021/11/02 02:28:05;;;;;;;1.58;1.15;;;;;;;5.11;81.66;98581.09;6338168;22;20002;-71
2021/11/02 02:30:32;;;;;;;1.08;1.08;;;;;;;5.04;81.64;98562.44;6365605;22;20002;-72
2021/11/02 02:33:00;;;;;;;1.52;0.50;;;;;;;5.05;81.46;98570.28;6336220;22;20089;-71
2021/11/02 02:35:27;;;;;;;0.40;0.40;;;;;;;5.03;80.97;98572.44;6365045;22;20085;-72
2021/11/02 02:37:54;;;;;;;0.63;0.30;;;;;;;4.97;81.15;98556.47;6364674;22;20021;-72
2021/11/02 02:40:24;;;;;;;0.20;0.20;;;;;;;5.01;81.15;98563.78;6361679;22;19994;-73
2021/11/02 02:42:51;;;;;;;0.20;0.20;;;;;;;5.05;80.39;98575.69;6286332;22;20093;-74
2021/11/02 02:45:18;;;;;;;0.20;0.10;;;;;;;5.06;81.18;98566.47;6366314;22;20107;-75
2021/11/02 02:47:52;;;;;;;0.10;0.10;;;;;;;5.10;81.23;98576.78;6366639;22;20003;-75
2021/11/02 02:50:22;;;;;;;0.17;0.17;;;;;;;5.04;80.11;98560.53;6312715;22;20002;-74
2021/11/02 02:59:23;;;;;;;;;;;;;;;;;;;;;
2021/11/02 03:05:49;;;;;;;2.05;1.33;;;;;;;4.88;80.78;98575.19;6298983;22;20375;-74
2021/11/02 03:11:50;;;;;;;2.80;1.48;;;;;;;4.83;81.25;98577.91;6398457;22;20068;-74
2021/11/02 03:14:29;;;;;;;2.50;1.60;;;;;;;4.76;81.19;98569.25;6370429;22;20005;-74
2021/11/02 03:17:02;;;;;;;1.65;1.55;;;;;;;4.77;81.51;98579.00;6370569;22;20029;-74
2021/11/02 03:50:22;;;;;;;4.35;1.45;;;;;;;4.57;81.82;98577.09;6375233;22;20013;-74
2021/11/02 03:56:00;;;;;;;3.60;1.10;;;;;;;4.58;82.44;98570.63;6392558;22;20014;-74
2021/11/02 04:34:10;;;;;;;1.17;1.10;;;;;;;4.06;81.25;98608.47;6349397;22;20006;-73
2021/11/02 05:14:18;;;;;;;;;;;;;;;4.01;81.36;98633.59;6377308;22;20006;-75
2021/11/02 06:02:53;;;;;;;1.17;1.08;;;;;;;3.73;83.83;98639.47;6375834;22;20013;-75
2021/11/02 06:11:10;;;;;;;1.55;1.30;;;;;;;3.78;84.01;98645.72;6376254;22;20013;-74
2021/11/02 06:28:08;;;;;;;0.80;0.80;;;;;;;4.00;84.18;98656.34;6368802;22;20013;-74
2021/11/02 06:33:50;;;;;;;0.80;0.80;;;;;;;4.11;83.95;98650.97;6372996;22;20006;-75
2021/11/02 06:36:10;;;;;;;0.60;0.60;;;;;;;4.18;84.39;98655.03;6369043;22;20044;-74
2021/11/02 06:50:13;;;;;;;1.42;0.60;;;;;;;4.31;84.55;98675.34;6371940;22;20041;-74
2021/11/02 06:58:59;;;;;;;0.75;0.75;;;;;;;4.21;84.33;98656.41;6403311;22;20081;-74
2021/11/02 07:24:15;;;;;;;1.00;0.40;;;;;;;4.13;82.75;98678.53;6257524;22;20459;-75
2021/11/02 08:48:11;;;;;;;0.55;0.30;;;;;;;13.66;66.74;98694.31;6344814;22;20308;-74
2021/11/02 08:51:23;;;;;;;0.52;0.40;;;;;;;14.19;65.30;98703.13;6362279;22;20102;-75
2021/11/02 08:53:54;;;;;;;0.28;0.20;;;;;;;14.70;64.01;98698.44;6208068;23;20048;-74
2021/11/02 08:56:30;;;;;;;;;;;;;;;;;;;;;
2021/11/02 08:59:06;;;;;;;;;;;;;;;;;;;;;
2021/11/02 09:01:36;;;;;;;0.60;0.35;;;;;;;16.34;61.20;98695.34;6365715;22;20082;-76
2021/11/02 09:04:23;;;;;;;0.68;0.30;;;;;;;16.84;59.78;98702.38;6337250;22;20309;-76
2021/11/02 09:06:50;;;;;;;0.45;0.45;;;;;;;17.33;58.80;98706.13;6338905;22;20102;-77
2021/11/02 09:09:18;;;;;;;0.50;0.30;;;;;;;17.69;58.31;98701.56;6337478;22;20057;-76
2021/11/02 09:15:13;;;;;;;0.40;0.20;;;;;;;18.50;55.93;98706.69;6341940;22;20002;-76
2021/11/02 09:25:19;;;;;;;0.30;0.30;;;;;;;20.09;53.01;98720.88;6324680;22;20010;-76
2021/11/02 09:28:27;;;;;;;0.45;0.30;;;;;;;20.68;52.01;98727.72;6339639;22;20378;-75
2021/11/02 09:30:57;;;;;;;0.55;0.17;;;;;;;20.86;51.68;98718.84;6340925;22;20374;-77
2021/11/02 09:34:31;;;;;;;1.63;0.50;;;;;;;21.49;50.73;98733.88;6342418;22;20005;-78
2021/11/02 09:37:43;;;;;;;;;;;;;;;;;;;;;
2021/11/02 09:41:03;;;;;;;1.00;0.30;;;;;;;22.46;47.78;98739.56;6214389;22;20073;-76
2021/11/02 09:43:58;;;;;;;;;;;;;;;;;;;;;
2021/11/02 09:47:30;;;;;;;0.20;0.13;;;;;;;23.60;45.72;98729.34;6381342;22;20309;-77
2021/11/02 09:50:53;;;;;;;0.38;0.10;;;;;;;24.50;45.74;98730.22;6316146;22;20018;-76
2021/11/02 09:53:50;;;;;;;;;;;;;;;;;;;;;
2021/11/02 09:57:10;;;;;;;;;;;;;;;;;;;;;
2021/11/02 10:00:37;;;;;;;;;;;;;;;;;;;;;
2021/11/02 10:03:41;;;;;;;0.73;0.25;;;;;;;23.11;38.87;98735.16;6371442;22;20092;-78
2021/11/02 10:13:40;;;;;;;0.57;0.20;;;;;;;22.29;38.44;98729.88;6208932;22;20020;-77
2021/11/02 10:20:25;;;;;;;0.40;0.20;;;;;;;23.44;37.72;98750.03;6183951;23;20143;-76
2021/11/02 10:48:29;;;;;;;0.30;0.10;;;;;;;29.13;29.09;98746.56;6131815;23;20084;-77
2021/11/02 11:05:51;;;;;;;1.30;0.10;;;;;;;30.57;24.50;98754.59;6035463;23;20352;-76
2021/11/02 11:16:16;;;;;;;0.10;0.10;;;;;;;32.04;24.17;98766.50;5980297;24;20451;-77
2021/11/02 11:19:19;;;;;;;;;;;;;;;;;;;;;
2021/11/02 11:21:46;;;;;;;0.10;0.00;;;;;;;33.43;22.89;98741.53;6017629;23;20160;-78
2021/11/02 11:25:37;;;;;;;0.13;0.10;;;;;;;34.01;21.31;98757.84;6031937;23;20038;-76
2021/11/02 11:28:33;;;;;;;;;;;;;;;;;;;;;
2021/11/02 11:31:51;;;;;;;0.32;0.00;;;;;;;34.38;21.18;98751.53;5925610;24;20093;-77
2021/11/02 11:38:06;;;;;;;0.10;0.10;;;;;;;34.45;19.31;98748.38;5900842;24;20648;-76
2021/11/02 11:40:44;;;;;;;0.08;0.03;;;;;;;34.40;19.39;98740.47;6208227;23;20003;-77
2021/11/02 11:44:22;;;;;;;0.10;0.03;;;;;;;34.81;20.41;98763.09;6325843;22;20025;-77
2021/11/02 11:51:14;;;;;;;;;;;;;;;;;;;;;
2021/11/02 11:53:51;;;;;;;0.20;0.10;;;;;;;35.64;18.30;98743.84;6122658;23;20096;-76
2021/11/02 11:56:37;;;;;;;;;;;;;;;;;;;;;
2021/11/02 11:59:20;;;;;;;0.10;0.00;;;;;;;35.27;18.76;98751.69;6343583;22;20425;-76
2021/11/02 12:08:50;;;;;;;0.30;0.10;;;;;;;36.64;16.54;98740.19;6217607;23;20005;-76
2021/11/02 12:11:48;;;;;;;0.10;0.00;;;;;;;36.74;16.83;98743.75;6192100;23;20007;-77
2021/11/02 12:14:24;;;;;;;0.10;0.00;;;;;;;36.62;16.93;98734.19;6204046;23;20044;-76
2021/11/02 12:17:13;;;;;;;0.00;0.00;;;;;;;37.00;17.33;98729.78;6184668;23;20082;-76
2021/11/02 12:20:04;;;;;;;0.20;0.10;;;;;;;35.34;15.36;98716.50;6274793;22;19999;-77
2021/11/02 12:22:46;;;;;;;0.05;0.00;;;;;;;32.11;16.83;98720.25;6338927;22;20002;-77
2021/11/02 12:25:37;;;;;;;0.70;0.17;;;;;;;29.11;18.79;98712.47;6333853;22;20002;-76
2021/11/02 12:32:45;;;;;;;;;;;;;;;;;;;;;
2021/11/02 12:47:08;;;;;;;;;;;;;;;;;;;;;
2021/11/02 12:50:01;;;;;;;0.30;0.00;;;;;;;19.95;28.77;98666.75;5912093;24;20084;-76
2021/11/02 12:52:48;;;;;;;0.15;0.00;;;;;;;20.86;30.25;98654.94;5955018;24;20011;-75
2021/11/02 12:55:31;;;;;;;0.10;0.00;;;;;;;21.52;28.47;98654.50;6152184;23;20011;-75
2021/11/02 12:58:42;;;;;;;;;;;;;;;;;;;;;
2021/11/02 13:01:20;;;;;;;0.00;0.00;;;;;;;23.80;27.69;98691.53;6178522;23;20093;-76
2021/11/02 13:04:08;;;;;;;;;;;;;;;;;;;;;
2021/11/02 13:07:31;;;;;;;0.10;0.00;;;;;;;26.96;25.71;98693.03;6365153;22;20086;-75
2021/11/02 13:10:00;;;;;;;2.05;0.10;;;;;;;28.70;25.18;98687.13;6185109;23;20498;-75
2021/11/02 13:13:34;;;;;;;0.15;0.10;;;;;;;30.70;22.90;98696.22;6169349;22;20012;-76
2021/11/02 13:16:09;;;;;;;0.30;0.10;;;;;;;31.78;20.25;98695.09;6211336;22;20020;-75
2021/11/02 13:26:25;;;;;;;;;;;;;;;;;;;;;
2021/11/02 13:28:58;;;;;;;0.15;0.08;;;;;;;36.55;15.64;98674.81;6239880;22;20080;-75
2021/11/02 13:35:13;;;;;;;;;;;;;;;;;;;;;
2021/11/02 13:38:25;;;;;;;0.10;0.05;;;;;;;37.38;14.98;98678.91;6372732;22;20022;-75
2021/11/02 13:44:26;;;;;;;0.17;0.03;;;;;;;37.04;14.02;98662.00;6351727;22;20010;-76
2021/11/02 13:47:27;;;;;;;0.00;0.00;;;;;;;36.29;14.12;98658.25;6340093;22;20030;-74
2021/11/02 13:55:11;;;;;;;0.00;0.00;;;;;;;35.58;14.40;98640.63;6369785;22;20002;-76
2021/11/02 14:28:24;;;;;;;0.00;0.00;;;;;;;35.37;15.50;98664.38;6331942;22;20260;-73
2021/11/02 14:34:28;;;;;;;0.30;0.10;;;;;;;31.05;17.77;98648.47;6275980;22;20054;-73
2021/11/02 14:37:27;;;;;;;0.05;0.00;;;;;;;28.98;18.78;98639.19;6333663;22;20003;-73
2021/11/02 14:40:13;;;;;;;;;;;;;;;;;;;;;
2021/11/02 14:42:55;;;;;;;0.00;0.00;;;;;;;26.73;21.34;98626.44;6332904;22;20074;-73
2021/11/02 14:45:38;;;;;;;0.10;0.00;;;;;;;26.16;21.70;98642.63;6307650;22;20006;-74
2021/11/02 14:48:41;;;;;;;0.22;0.10;;;;;;;25.66;22.05;98640.25;6306864;22;20010;-73
2021/11/02 14:51:37;;;;;;;0.00;0.00;;;;;;;27.18;22.55;98643.06;6335695;22;20329;-73
2021/11/02 14:54:29;;;;;;;0.00;0.00;;;;;;;28.66;21.37;98632.97;6336341;22;20007;-75
2021/11/02 14:56:57;;;;;;;0.00;0.00;;;;;;;29.98;21.38;98629.63;6336019;22;20006;-76
2021/11/02 14:59:23;;;;;;;0.10;0.00;;;;;;;31.27;19.47;98639.38;6334851;22;20003;-75
2021/11/02 15:01:57;;;;;;;0.10;0.03;;;;;;;32.09;18.81;98652.84;6308600;22;20003;-76
2021/11/02 15:04:32;;;;;;;0.10;0.08;;;;;;;32.70;18.81;98641.47;6305833;22;20362;-74
2021/11/02 15:07:02;;;;;;;2.03;0.00;;;;;;;33.37;18.29;98642.19;6309955;22;20062;-74
2021/11/02 15:09:38;;;;;;;0.00;0.00;;;;;;;33.99;17.88;98651.84;6306635;22;20078;-76
2021/11/02 15:12:09;;;;;;;0.10;0.10;;;;;;;34.20;17.46;98644.44;6336740;22;20036;-75
2021/11/02 15:14:39;;;;;;;0.80;0.00;;;;;;;34.24;17.18;98645.91;6332952;22;20002;-76
2021/11/02 15:20:48;;;;;;;0.10;0.00;;;;;;;34.43;17.43;98651.59;6333087;22;20010;-74
2021/11/02 15:23:15;;;;;;;0.63;0.00;;;;;;;34.39;16.58;98650.94;6332211;22;20015;-75
2021/11/02 15:25:59;;;;;;;0.38;0.10;;;;;;;34.19;16.34;98649.34;6307920;22;20010;-75
2021/11/02 15:28:41;;;;;;;0.10;0.00;;;;;;;34.13;17.17;98636.25;6308262;22;20010;-78
2021/11/02 15:31:09;;;;;;;0.00;0.00;;;;;;;34.17;16.98;98645.41;6309135;22;20002;-75
2021/11/02 15:33:42;;;;;;;0.32;0.00;;;;;;;34.17;17.28;98648.22;6279451;22;20015;-76
2021/11/02 15:36:30;;;;;;;0.00;0.00;;;;;;;33.68;17.00;98658.34;6307802;22;20070;-75
2021/11/02 15:39:08;;;;;;;0.00;0.00;;;;;;;31.76;17.09;98643.88;6333983;22;20011;-75
2021/11/02 15:41:45;;;;;;;0.00;0.00;;;;;;;29.72;18.85;98641.53;6332348;22;20006;-75
2021/11/02 15:44:15;;;;;;;0.00;0.00;;;;;;;28.03;20.04;98659.81;6310158;22;20421;-74
2021/11/02 15:46:42;;;;;;;0.00;0.00;;;;;;;26.46;20.95;98638.34;6306736;22;20429;-74
2021/11/02 15:49:12;;;;;;;5.05;0.00;;;;;;;25.31;21.57;98650.50;6335154;22;20018;-74
2021/11/02 15:51:51;;;;;;;0.00;0.00;;;;;;;24.13;23.03;98642.06;6329560;22;20069;-75
2021/11/02 15:54:26;;;;;;;0.00;0.00;;;;;;;23.08;23.63;98635.56;6306787;22;20009;-75
2021/11/02 15:57:08;;;;;;;0.08;0.00;;;;;;;22.27;24.15;98632.81;6306431;22;20009;-74
2021/11/02 15:59:37;;;;;;;0.00;0.00;;;;;;;21.62;25.23;98637.09;6333937;22;20002;-75
2021/11/02 16:02:06;;;;;;;0.00;0.00;;;;;;;21.06;25.68;98650.81;6333785;22;20023;-75
2021/11/02 16:04:31;;;;;;;5.38;0.00;;;;;;;20.50;26.10;98646.13;6283692;22;20014;-76
2021/11/02 16:07:05;;;;;;;0.10;0.00;;;;;;;19.89;26.89;98637.75;6256493;22;20452;-75
2021/11/02 16:10:04;;;;;;;0.08;0.00;;;;;;;19.38;26.97;98646.31;6305777;22;20022;-75
2021/11/02 16:12:35;;;;;;;0.00;0.00;;;;;;;18.77;27.82;98643.97;6337656;22;19999;-76
2021/11/02 16:15:23;;;;;;;0.00;0.00;;;;;;;18.40;27.62;98651.88;6335169;22;20002;-73
2021/11/02 16:17:50;;;;;;;0.00;0.00;;;;;;;18.01;28.74;98651.81;6310709;22;20003;-75
2021/11/02 16:20:20;;;;;;;0.20;0.00;;;;;;;17.61;29.24;98659.13;6344553;22;19991;-76
2021/11/02 16:23:01;;;;;;;0.00;0.00;;;;;;;17.31;29.59;98664.25;6333803;22;20015;-75
2021/11/02 16:25:32;;;;;;;0.00;0.00;;;;;;;16.94;29.79;98656.97;6349667;22;20363;-75
2021/11/02 16:28:02;;;;;;;0.00;0.00;;;;;;;16.69;30.29;98668.06;6321825;22;20037;-75
2021/11/02 16:30:40;;;;;;;1.75;0.00;;;;;;;16.46;30.64;98659.50;6329608;22;20079;-74
2021/11/02 16:33:06;;;;;;;0.10;0.00;;;;;;;16.28;31.08;98674.69;6361129;22;19995;-75
2021/11/02 16:35:33;;;;;;;0.22;0.00;;;;;;;16.03;31.23;98670.00;6360783;22;20081;-75
2021/11/02 16:38:22;;;;;;;0.00;0.00;;;;;;;15.62;31.71;98651.69;6310786;22;20468;-75
2021/11/02 16:40:59;;;;;;;0.00;0.00;;;;;;;15.38;32.30;98663.50;6340304;22;20025;-76
2021/11/02 16:43:39;;;;;;;0.00;0.00;;;;;;;15.04;32.88;98658.00;6308720;22;20064;-74
2021/11/02 16:46:19;;;;;;;0.00;0.00;;;;;;;14.71;33.24;98644.25;6307334;22;20075;-75
2021/11/02 16:49:16;;;;;;;0.00;0.00;;;;;;;14.66;33.89;98673.56;6307914;22;20298;-75
2021/11/02 16:52:04;;;;;;;0.03;0.03;;;;;;;14.38;34.09;98658.69;6334118;22;19999;-74
2021/11/02 16:54:45;;;;;;;1.05;0.10;;;;;;;14.34;35.12;98672.31;6335596;22;20007;-75
2021/11/02 16:57:30;;;;;;;0.30;0.00;;;;;;;14.18;34.95;98671.25;6332823;22;20010;-75
2021/11/02 17:00:06;;;;;;;0.20;0.10;;;;;;;13.99;35.92;98658.78;6281597;22;20090;-74
2021/11/02 17:03:07;;;;;;;;;;;;;;;;;;;;;
2021/11/02 17:05:37;;;;;;;0.00;0.00;;;;;;;13.89;36.59;98670.16;6335421;22;20078;-76
2021/11/02 17:08:10;;;;;;;0.10;0.10;;;;;;;13.78;37.20;98678.78;6284836;22;19999;-74
2021/11/02 17:10:43;;;;;;;0.15;0.15;;;;;;;13.68;37.66;98684.63;6309884;22;19995;-77
2021/11/02 17:13:14;;;;;;;0.25;0.10;;;;;;;13.60;38.08;98693.69;6312169;22;20388;-76
2021/11/02 17:16:02;;;;;;;0.00;0.00;;;;;;;13.52;38.33;98689.84;6312322;22;20541;-75
2021/11/02 17:19:07;;;;;;;;;;;;;;;;;;;;;
2021/11/02 17:21:35;;;;;;;1.85;0.20;;;;;;;13.35;38.99;98690.69;6342391;22;20082;-76
2021/11/02 17:24:31;;;;;;;;;;;;;;;;;;;;;
2021/11/02 17:26:57;;;;;;;4.45;1.15;;;;;;;13.22;38.75;98686.97;6341312;22;20071;-75
2021/11/02 17:29:25;;;;;;;2.70;0.80;;;;;;;13.30;38.95;98704.56;6339442;22;20016;-79
2021/11/02 17:32:06;;;;;;;0.52;0.50;;;;;;;13.23;38.95;98685.84;6340610;22;20097;-75
2021/11/02 17:34:36;;;;;;;0.50;0.25;;;;;;;13.28;39.62;98690.34;6343697;22;20003;-77
2021/11/02 17:37:11;;;;;;;0.52;0.30;;;;;;;13.22;39.48;98683.44;6344240;22;20010;-75
2021/11/02 17:39:56;;;;;;;;;;;;;;;;;;;;;
2021/11/02 17:42:43;;;;;;;;;;;;;;;;;;;;;
2021/11/02 17:45:23;;;;;;;;;;;;;;;;;;;;;
2021/11/02 17:48:07;;;;;;;1.65;0.10;;;;;;;13.27;40.64;98686.00;6313089;22;20023;-77
2021/11/02 17:50:48;;;;;;;;;;;;;;;;;;;;;
2021/11/02 17:53:15;;;;;;;0.30;0.20;;;;;;;13.22;40.42;98680.69;6311865;22;20011;-77
2021/11/02 17:55:43;;;;;;;0.35;0.35;;;;;;;13.28;40.57;98698.59;6308664;22;20459;-77
2021/11/02 17:58:37;;;;;;;0.30;0.30;;;;;;;13.29;40.25;98708.44;6283214;22;20003;-77
2021/11/02 18:01:06;;;;;;;0.20;0.20;;;;;;;13.23;40.96;98712.50;6309717;22;20023;-76
2021/11/02 18:03:38;;;;;;;0.13;0.13;;;;;;;13.22;41.41;98722.66;6282014;22;20006;-76
2021/11/02 18:06:58;;;;;;;0.30;0.20;;;;;;;13.23;40.81;98731.72;6308685;22;20000;-78
2021/11/02 18:09:34;;;;;;;;;;;;;;;;;;;;;
2021/11/02 18:12:03;;;;;;;0.10;0.10;;;;;;;13.05;42.04;98729.00;6309458;22;20517;-76
2021/11/02 18:14:35;;;;;;;0.35;0.28;;;;;;;12.99;42.14;98722.03;6306242;22;19999;-78
2021/11/02 18:17:05;;;;;;;0.00;0.00;;;;;;;12.93;42.36;98728.81;6308377;22;20015;-75
2021/11/02 18:19:35;;;;;;;0.15;0.10;;;;;;;13.06;42.17;98749.78;6313877;22;20449;-77
2021/11/02 18:22:01;;;;;;;0.10;0.10;;;;;;;13.00;42.48;98740.13;6313339;22;20049;-77
2021/11/02 18:24:30;;;;;;;0.10;0.10;;;;;;;12.93;42.83;98740.59;6313299;22;20027;-77
2021/11/02 18:26:58;;;;;;;0.13;0.13;;;;;;;12.95;42.78;98737.50;6290058;22;20019;-77
2021/11/02 18:29:33;;;;;;;0.30;0.30;;;;;;;13.01;43.02;98752.72;6263687;22;20468;-78
2021/11/02 18:31:58;;;;;;;1.73;0.30;;;;;;;12.89;43.45;98744.31;6287827;22;20011;-77
2021/11/02 18:34:25;;;;;;;0.20;0.10;;;;;;;12.82;43.43;98744.81;6314691;22;20078;-78
2021/11/02 18:40:30;;;;;;;0.20;0.10;;;;;;;12.55;44.42;98756.84;6167830;23;20009;-77
2021/11/02 18:43:08;;;;;;;;;;;;;;;;;;;;;
2021/11/02 18:45:35;;;;;;;0.05;0.05;;;;;;;12.39;44.74;98759.25;6315410;22;20464;-77
2021/11/02 18:48:03;;;;;;;0.10;0.10;;;;;;;12.25;44.45;98759.38;6287291;22;20003;-79
2021/11/02 18:50:32;;;;;;;0.77;0.70;;;;;;;11.99;44.71;98743.66;6319900;22;19995;-77
2021/11/02 18:52:59;;;;;;;0.68;0.60;;;;;;;11.94;45.48;98760.22;6321507;22;20064;-79
2021/11/02 18:55:51;;;;;;;;;;;;;;;;;;;;;
2021/11/02 18:59:13;;;;;;;0.70;0.50;;;;;;;11.66;45.53;98776.78;6304831;22;20026;-79
2021/11/02 19:05:35;;;;;;;0.35;0.30;;;;;;;11.43;46.33;98776.00;6279865;22;20018;-84
2021/11/02 19:08:04;;;;;;;1.77;0.80;;;;;;;11.24;47.27;98765.25;6317649;22;20086;-80
2021/11/02 19:10:30;;;;;;;2.22;0.80;;;;;;;11.13;47.72;98752.97;6288636;22;20417;-77
2021/11/02 19:13:05;;;;;;;0.77;0.77;;;;;;;11.13;48.02;98750.22;6317177;22;19999;-77
2021/11/02 19:15:48;;;;;;;0.70;0.70;;;;;;;11.20;47.84;98758.81;6289235;22;20010;-79
2021/11/02 19:18:15;;;;;;;1.52;1.00;;;;;;;11.21;48.51;98759.59;6315296;22;20051;-79
2021/11/02 19:20:44;;;;;;;1.40;1.30;;;;;;;11.21;48.63;98765.88;6312925;22;20010;-78
2021/11/02 19:23:11;;;;;;;2.35;1.88;;;;;;;11.28;48.44;98779.94;6286304;22;20073;-78
2021/11/02 19:25:51;;;;;;;2.20;2.10;;;;;;;11.17;48.91;98773.09;6315582;22;19999;-77
2021/11/02 19:28:27;;;;;;;;;;;;;;;;;;;;;
2021/11/02 19:30:53;;;;;;;1.95;1.85;;;;;;;10.99;48.84;98756.56;6311794;22;20059;-78
2021/11/02 19:33:22;;;;;;;1.50;1.40;;;;;;;11.04;48.29;98771.22;6310237;22;20014;-76
2021/11/02 19:35:48;;;;;;;0.95;0.95;;;;;;;11.07;49.00;98787.00;6284334;22;20003;-77
2021/11/02 19:38:16;;;;;;;5.70;1.08;;;;;;;10.97;48.83;98780.66;6310124;22;20007;-77
2021/11/02 19:41:25;;;;;;;0.65;0.55;;;;;;;11.03;48.93;98791.50;6314131;22;20738;-79
2021/11/02 19:43:50;;;;;;;0.60;0.57;;;;;;;10.86;49.58;98776.53;6289255;22;20077;-81
2021/11/02 19:46:26;;;;;;;0.63;0.50;;;;;;;10.86;50.30;98787.47;6316589;22;20007;-80
2021/11/02 19:48:52;;;;;;;0.60;0.60;;;;;;;10.59;50.50;98770.03;6281219;22;20011;-79
2021/11/02 19:51:26;;;;;;;0.82;0.82;;;;;;;10.54;50.32;98770.16;6304537;22;20086;-81
2021/11/02 19:54:00;;;;;;;0.43;0.43;;;;;;;10.71;50.34;98806.97;6284212;22;20007;-79
2021/11/02 19:56:25;;;;;;;1.15;0.73;;;;;;;10.51;50.06;98764.47;6311697;22;20232;-80
2021/11/02 19:59:09;;;;;;;;;;;;;;;;;;;;;
2021/11/02 20:01:48;;;;;;;;;;;;;;;;;;;;;
2021/11/02 20:04:14;;;;;;;0.40;0.30;;;;;;;10.63;50.59;98784.69;6312513;22;20039;-77
2021/11/02 20:06:56;;;;;;;0.30;0.30;;;;;;;10.62;50.61;98774.06;6313176;22;19999;-77
2021/11/02 20:09:27;;;;;;;0.95;0.30;;;;;;;10.80;50.26;98794.19;6279935;22;20039;-78
2021/11/02 20:12:11;;;;;;;0.40;0.20;;;;;;;10.94;50.49;98800.44;6310900;22;20114;-80
2021/11/02 20:15:00;;;;;;;0.25;0.20;;;;;;;11.04;50.40;98806.78;6309567;22;20010;-78
2021/11/02 20:17:35;;;;;;;0.38;0.30;;;;;;;11.07;50.73;98808.88;6306017;22;19995;-75
2021/11/02 20:20:04;;;;;;;0.60;0.10;;;;;;;11.10;50.44;98808.28;6303576;22;19995;-76
2021/11/02 20:22:37;;;;;;;0.32;0.30;;;;;;;11.04;50.72;98804.03;6279094;22;20029;-78
2021/11/02 20:25:05;;;;;;;0.20;0.20;;;;;;;11.07;50.32;98806.97;6273608;22;20446;-75
2021/11/02 20:27:34;;;;;;;0.30;0.30;;;;;;;11.07;50.85;98803.41;6271190;22;20004;-74
2021/11/02 20:30:01;;;;;;;0.10;0.10;;;;;;;11.02;50.82;98798.06;6300714;22;20031;-76
2021/11/02 20:32:45;;;;;;;0.10;0.10;;;;;;;11.05;50.96;98811.94;6275167;22;20012;-76
2021/11/02 20:35:16;;;;;;;0.10;0.10;;;;;;;10.92;51.03;98802.66;6300031;22;20330;-73
2021/11/02 20:37:59;;;;;;;0.20;0.20;;;;;;;10.91;51.14;98825.66;6274125;22;20061;-76
2021/11/02 20:40:36;;;;;;;0.38;0.25;;;;;;;10.73;51.97;98821.13;6272898;22;20437;-76
2021/11/02 20:43:06;;;;;;;0.32;0.30;;;;;;;10.59;51.60;98821.16;6295353;22;20010;-76
2021/11/02 20:45:36;;;;;;;1.20;0.50;;;;;;;10.42;52.46;98819.03;6271451;22;20010;-74
2021/11/02 20:48:02;;;;;;;0.20;0.20;;;;;;;10.25;52.98;98825.06;6271820;22;20082;-73
2021/11/02 20:50:31;;;;;;;0.60;0.60;;;;;;;10.08;52.94;98817.47;6270992;22;20010;-74
2021/11/02 20:52:57;;;;;;;0.45;0.35;;;;;;;9.93;53.67;98822.09;6273511;22;20351;-72
2021/11/02 20:55:23;;;;;;;0.80;0.80;;;;;;;9.78;54.00;98822.38;6276629;22;20041;-76
2021/11/02 20:57:50;;;;;;;0.75;0.70;;;;;;;9.64;54.16;98818.78;6277109;22;20008;-74
2021/11/02 21:00:17;;;;;;;0.50;0.50;;;;;;;9.56;54.20;98820.28;6271457;22;20027;-72
2021/11/02 21:02:43;;;;;;;3.72;0.47;;;;;;;9.47;53.85;98825.63;6273366;22;20033;-71
2021/11/02 21:05:09;;;;;;;1.27;0.50;;;;;;;9.38;54.74;98821.94;6270029;22;20011;-73
2021/11/02 21:07:41;;;;;;;0.52;0.52;;;;;;;9.21;55.00;98817.84;6273751;22;20101;-72
2021/11/02 21:10:11;;;;;;;0.43;0.40;;;;;;;9.12;55.37;98814.16;6299496;22;20090;-72
2021/11/02 21:12:39;;;;;;;0.70;0.70;;;;;;;9.00;56.19;98821.97;6299459;22;20000;-72
2021/11/02 21:15:06;;;;;;;0.60;0.60;;;;;;;8.85;56.21;98821.09;6274625;22;20302;-73
2021/11/02 21:17:37;;;;;;;0.80;0.80;;;;;;;8.72;56.64;98816.38;6279140;22;20015;-72
2021/11/02 21:20:21;;;;;;;1.10;0.95;;;;;;;8.55;57.42;98812.19;6282812;22;19995;-72
2021/11/02 21:22:50;;;;;;;0.60;0.52;;;;;;;8.54;57.11;98826.94;6282936;22;20078;-76
2021/11/02 21:25:17;;;;;;;1.25;0.88;;;;;;;8.34;58.00;98819.78;6314343;22;20010;-75
2021/11/02 21:42:10;;;;;;;0.60;0.50;;;;;;;7.91;59.15;98827.06;6047510;23;20055;-76
2021/11/02 21:44:59;;;;;;;0.68;0.68;;;;;;;7.89;58.88;98826.56;6126195;23;20005;-77
2021/11/02 21:47:44;;;;;;;0.50;0.40;;;;;;;7.95;58.61;98847.16;6319120;22;20027;-78
2021/11/02 21:50:32;;;;;;;0.68;0.50;;;;;;;7.81;59.27;98830.69;6291439;22;20134;-78
2021/11/02 21:53:17;;;;;;;0.15;0.15;;;;;;;7.89;59.34;98840.16;6315753;22;19999;-77
2021/11/02 21:56:07;;;;;;;0.43;0.30;;;;;;;7.85;58.63;98845.34;6288469;22;20003;-76
2021/11/02 21:58:57;;;;;;;0.35;0.35;;;;;;;7.79;58.81;98832.91;6314160;22;20071;-76
2021/11/02 22:01:33;;;;;;;0.80;0.60;;;;;;;7.66;60.17;98828.94;6292219;22;20001;-79
2021/11/02 22:04:02;;;;;;;0.47;0.40;;;;;;;7.61;59.88;98826.25;6322230;22;19998;-77
2021/11/02 22:06:29;;;;;;;0.57;0.57;;;;;;;7.59;60.16;98833.88;6319580;22;20066;-75
2021/11/02 22:09:00;;;;;;;0.55;0.50;;;;;;;7.45;60.10;98823.66;6316181;22;20007;-77
2021/11/02 22:11:28;;;;;;;1.20;0.75;;;;;;;7.37;61.20;98807.94;6326155;22;20034;-76
2021/11/02 22:13:53;;;;;;;1.00;1.00;;;;;;;7.40;61.83;98817.44;6331085;22;19999;-74
2021/11/02 22:16:24;;;;;;;0.80;0.80;;;;;;;7.42;60.75;98824.22;6303269;22;19988;-73
2021/11/02 22:18:57;;;;;;;0.73;0.70;;;;;;;7.43;61.71;98830.47;6327514;22;20010;-75